Saint James, Michigan
Current Conditions -  °F | °C
As of 9:16 AM on Monday 20 Oct 2014 (Local Time) from KSJX Reporting Station
Overcast Overcast  
Wind Chill: 43°   Ceiling: 6000
Heat Index: 48°   Visibility: 10mi
Dew Point: 43°   Wind: 12mph
Humidity: 84%   Direction: 310°NW
Pressure: 29.78"   Gusts: 17mph
Location:  45.6554°N, 85.5518°W
Report Text: KSJX 201316Z AUTO 31010G15KT 10SM SCT012 SCT035 OVC060 09/06 A2978 RMK AO2 T00870061
Loading
Personal Weather Stations






























Interactive Weather Map
Tropical Storm Tracking
New forecast layout! Learn more

10-Day Weather Forecast

Advertisements
Track Severe Weather on mobile